Time;durP1;ratioP1;P1;durP2;ratioP2;P2;SDS_P1;SDS_P2;PMS_P1;PMS_P2;Temp;Humidity;BMP_temperature;BMP_pressure;BME280_temperature;BME280_humidity;BME280_pressure;Samples;Min_cycle;Max_cycle;Signal;HPM_P1;HPM_P2
2022/11/11 00:00:03;;;;;;;5.13;2.47;;;11.40;99.90;;;;;;4199282;28;20029;-66
2022/11/11 00:02:03;;;;;;;4.40;2.05;;;11.40;99.90;;;;;;4204574;28;20062;-61
2022/11/11 00:04:04;;;;;;;5.90;2.67;;;11.40;99.90;;;;;;4215252;28;20028;-61
2022/11/11 00:06:08;;;;;;;5.45;2.30;;;11.50;99.90;;;;;;4217662;28;20032;-61
2022/11/11 00:08:09;;;;;;;4.40;2.17;;;11.40;99.90;;;;;;4210378;28;20052;-61
2022/11/11 00:10:09;;;;;;;5.35;2.53;;;11.40;99.90;;;;;;4210275;28;20415;-61
2022/11/11 00:12:10;;;;;;;5.88;2.42;;;11.40;99.90;;;;;;4208075;28;20119;-61
2022/11/11 00:14:10;;;;;;;7.90;2.60;;;11.40;99.90;;;;;;4206809;28;20033;-66
2022/11/11 00:16:16;;;;;;;5.13;2.40;;;11.30;99.90;;;;;;4209573;28;20064;-62
2022/11/11 00:25:16;;;;;;;6.90;2.70;;;11.30;99.90;;;;;;4198690;28;20439;-62
2022/11/11 00:27:17;;;;;;;7.35;2.50;;;11.10;99.90;;;;;;4196326;28;20036;-61
2022/11/11 00:29:19;;;;;;;5.00;2.65;;;11.10;99.90;;;;;;4196210;28;20031;-61
2022/11/11 00:31:20;;;;;;;8.35;2.90;;;11.10;99.90;;;;;;4197389;28;20036;-61
2022/11/11 00:33:21;;;;;;;4.13;2.40;;;11.10;99.90;;;;;;4201874;28;20436;-61
2022/11/11 00:37:43;;;;;;;7.72;2.70;;;11.00;99.90;;;;;;4216006;28;20028;-63
2022/11/11 00:39:44;;;;;;;4.05;2.13;;;11.00;99.90;;;;;;4217232;28;20042;-62
2022/11/11 00:41:45;;;;;;;5.28;2.60;;;10.90;99.90;;;;;;4220446;28;20032;-62
2022/11/11 00:43:46;;;;;;;6.13;2.63;;;10.90;99.90;;;;;;4215971;28;20024;-61
2022/11/11 00:45:47;;;;;;;5.43;2.83;;;10.90;99.90;;;;;;4207076;28;20036;-61
2022/11/11 00:52:40;;;;;;;4.35;2.28;;;10.90;99.90;;;;;;4205856;28;20064;-61
2022/11/11 00:54:40;;;;;;;6.20;2.70;;;10.90;99.90;;;;;;4202285;28;20036;-61
2022/11/11 00:56:41;;;;;;;3.83;2.40;;;10.90;99.90;;;;;;4197606;28;20036;-61
2022/11/11 00:58:41;;;;;;;4.00;2.38;;;11.00;99.90;;;;;;4201932;28;20044;-63
2022/11/11 01:00:43;;;;;;;8.90;2.85;;;11.00;99.90;;;;;;4201258;28;20522;-62
2022/11/11 01:02:43;;;;;;;4.40;2.50;;;10.90;99.90;;;;;;4204818;28;20032;-61
2022/11/11 01:04:44;;;;;;;4.13;2.10;;;10.90;99.90;;;;;;4203860;28;20060;-62
2022/11/11 01:06:44;;;;;;;7.55;2.88;;;10.90;99.90;;;;;;4197882;28;20067;-61
2022/11/11 01:08:45;;;;;;;5.88;2.55;;;10.90;99.90;;;;;;4199021;28;20028;-61
2022/11/11 01:10:47;;;;;;;7.38;2.55;;;10.90;99.90;;;;;;4200163;28;20131;-61
2022/11/11 01:12:47;;;;;;;4.93;2.28;;;10.90;99.90;;;;;;4205016;28;20028;-61
2022/11/11 01:14:48;;;;;;;5.65;2.40;;;10.80;99.90;;;;;;4200764;28;20508;-61
2022/11/11 01:16:48;;;;;;;6.25;2.42;;;10.80;99.90;;;;;;4201982;28;20031;-61
2022/11/11 01:18:50;;;;;;;4.70;2.72;;;10.80;99.90;;;;;;4202465;28;20024;-61
2022/11/11 01:21:06;;;;;;;7.97;3.15;;;10.80;99.90;;;;;;4204843;28;20403;-61
2022/11/11 01:23:09;;;;;;;6.22;2.50;;;10.80;99.90;;;;;;4207652;28;20490;-61
2022/11/11 01:25:09;;;;;;;4.30;2.40;;;10.80;99.90;;;;;;4204473;28;20387;-63
2022/11/11 01:27:10;;;;;;;4.72;2.60;;;10.80;99.90;;;;;;4202648;28;20131;-61
2022/11/11 01:29:10;;;;;;;7.60;2.53;;;10.80;99.90;;;;;;4201885;28;20110;-61
2022/11/11 01:31:13;;;;;;;4.60;2.50;;;10.80;99.90;;;;;;4202334;28;20100;-61
2022/11/11 01:33:13;;;;;;;7.25;2.45;;;10.80;99.90;;;;;;4199691;28;20406;-61
2022/11/11 01:35:14;;;;;;;4.95;2.55;;;10.80;99.90;;;;;;4199569;28;20056;-62
2022/11/11 01:37:15;;;;;;;9.65;2.90;;;10.80;99.90;;;;;;4200897;28;20037;-62
2022/11/11 01:39:15;;;;;;;5.18;2.65;;;10.80;99.90;;;;;;4200590;28;20051;-61
2022/11/11 01:41:31;;;;;;;4.57;2.60;;;10.80;99.90;;;;;;4202128;28;20041;-61
2022/11/11 01:43:32;;;;;;;6.90;3.03;;;10.80;99.90;;;;;;4201082;28;20042;-61
2022/11/11 01:45:46;;;;;;;5.68;3.00;;;10.70;99.90;;;;;;4202304;28;20524;-61
2022/11/11 01:50:07;;;;;;;7.22;2.95;;;10.70;99.90;;;;;;4209497;28;20028;-61
2022/11/11 01:52:25;;;;;;;6.38;3.00;;;10.70;99.90;;;;;;4217545;28;20085;-61
2022/11/11 01:54:25;;;;;;;5.30;2.55;;;10.70;99.90;;;;;;4200592;28;20036;-61
2022/11/11 01:56:26;;;;;;;4.40;2.58;;;10.70;99.90;;;;;;4201549;28;20039;-61
2022/11/11 01:58:27;;;;;;;4.90;2.60;;;10.70;99.90;;;;;;4205786;28;20542;-61
2022/11/11 02:00:28;;;;;;;5.20;2.53;;;10.70;99.90;;;;;;4200668;28;20036;-61
2022/11/11 02:02:49;;;;;;;5.72;2.97;;;10.70;99.90;;;;;;4203092;28;20060;-63
2022/11/11 02:07:10;;;;;;;6.13;2.53;;;10.70;99.90;;;;;;4200799;28;20040;-61
2022/11/11 02:09:10;;;;;;;6.05;2.88;;;10.60;99.90;;;;;;4199769;28;20047;-61
2022/11/11 02:14:34;;;;;;;5.65;2.90;;;10.70;99.90;;;;;;4201847;28;20040;-61
2022/11/11 02:16:01;;;;;;;4.72;2.45;;;10.70;99.90;;;;;;4199003;28;20035;-61
2022/11/11 02:18:02;;;;;;;5.13;2.90;;;10.60;99.90;;;;;;4201483;28;20032;-61
2022/11/11 02:20:04;;;;;;;7.18;3.13;;;10.60;99.90;;;;;;4203919;28;20064;-63
2022/11/11 02:22:07;;;;;;;3.95;2.53;;;10.60;99.90;;;;;;4202732;28;20548;-61
2022/11/11 02:24:14;;;;;;;6.30;2.50;;;10.60;99.90;;;;;;4204444;28;20024;-61
2022/11/11 02:26:16;;;;;;;7.43;2.25;;;10.60;99.90;;;;;;4205055;28;20032;-61
2022/11/11 02:28:18;;;;;;;6.28;2.50;;;10.60;99.90;;;;;;4198368;28;20488;-61
2022/11/11 02:30:20;;;;;;;5.53;2.60;;;10.60;99.90;;;;;;4199199;28;20101;-61
2022/11/11 02:32:20;;;;;;;6.33;2.90;;;10.60;99.90;;;;;;4200472;28;20386;-61
2022/11/11 02:34:28;;;;;;;6.32;2.72;;;10.60;99.90;;;;;;4198453;28;20037;-61
2022/11/11 02:36:29;;;;;;;4.10;2.20;;;10.60;99.90;;;;;;4203225;28;20390;-61
2022/11/11 02:38:30;;;;;;;6.40;3.00;;;10.60;99.90;;;;;;4202984;28;20107;-62
2022/11/11 02:40:37;;;;;;;5.53;2.60;;;10.60;99.90;;;;;;4198883;28;20043;-61
2022/11/11 02:42:38;;;;;;;7.07;3.00;;;10.60;99.90;;;;;;4205943;28;20518;-61
2022/11/11 02:44:39;;;;;;;4.07;2.42;;;10.50;99.90;;;;;;4205193;28;20032;-61
2022/11/11 02:46:39;;;;;;;8.35;3.17;;;10.50;99.90;;;;;;4202774;28;20040;-61
2022/11/11 02:48:40;;;;;;;4.70;2.58;;;10.40;99.90;;;;;;4200868;28;20036;-61
2022/11/11 02:50:40;;;;;;;8.85;3.25;;;10.40;99.90;;;;;;4205167;28;20032;-61
2022/11/11 02:52:41;;;;;;;6.43;2.22;;;10.30;99.90;;;;;;4202907;28;20390;-61
2022/11/11 02:54:42;;;;;;;9.13;3.30;;;10.30;99.90;;;;;;4199855;28;20044;-61
2022/11/11 02:59:02;;;;;;;5.53;2.90;;;10.20;99.90;;;;;;4195689;28;20028;-61
2022/11/11 03:01:02;;;;;;;6.13;3.00;;;10.20;99.90;;;;;;4204816;28;20445;-61
2022/11/11 03:03:03;;;;;;;5.22;2.80;;;10.20;99.90;;;;;;4204564;28;20460;-61
2022/11/11 03:05:04;;;;;;;4.18;2.47;;;10.20;99.90;;;;;;4199722;28;20047;-63
2022/11/11 03:07:05;;;;;;;7.93;2.92;;;10.20;99.90;;;;;;4216497;28;20506;-61
2022/11/11 03:09:05;;;;;;;8.40;2.78;;;10.10;99.90;;;;;;4215571;27;20032;-61
2022/11/11 03:11:06;;;;;;;7.35;3.03;;;10.10;99.90;;;;;;4215943;28;20140;-61
2022/11/11 03:13:06;;;;;;;5.60;2.70;;;10.10;99.90;;;;;;4211218;28;20028;-61
2022/11/11 03:15:08;;;;;;;6.72;2.92;;;10.00;99.90;;;;;;4209917;28;20035;-62
2022/11/11 03:19:28;;;;;;;3.58;2.15;;;10.00;99.90;;;;;;4213296;28;20052;-61
2022/11/11 03:21:28;;;;;;;7.57;2.97;;;10.00;99.90;;;;;;4211377;28;20035;-61
2022/11/11 03:23:29;;;;;;;8.40;3.03;;;10.00;99.90;;;;;;4198803;28;20394;-63
2022/11/11 03:25:39;;;;;;;6.15;3.05;;;10.00;99.90;;;;;;4196170;28;20052;-62
2022/11/11 03:27:41;;;;;;;6.07;2.90;;;9.90;99.90;;;;;;4199766;28;20115;-61
2022/11/11 03:29:41;;;;;;;6.25;2.88;;;9.90;99.90;;;;;;4203257;28;20035;-61
2022/11/11 03:31:42;;;;;;;6.35;3.13;;;9.90;99.90;;;;;;4201870;28;20060;-61
2022/11/11 03:33:42;;;;;;;5.88;2.15;;;9.90;99.90;;;;;;4192961;28;20952;-61
2022/11/11 03:35:46;;;;;;;8.07;3.08;;;10.00;99.90;;;;;;4200248;28;20078;-61
2022/11/11 03:40:06;;;;;;;7.38;2.97;;;10.00;99.90;;;;;;4212904;28;20047;-63
2022/11/11 03:42:07;;;;;;;6.50;2.83;;;10.00;99.90;;;;;;4209020;28;20024;-61
2022/11/11 03:44:07;;;;;;;6.20;2.75;;;10.00;99.90;;;;;;4211125;28;20026;-61
2022/11/11 03:46:08;;;;;;;5.32;2.60;;;10.00;99.90;;;;;;4214936;28;20028;-61
2022/11/11 03:48:09;;;;;;;4.32;2.28;;;9.90;99.90;;;;;;4214128;28;20024;-61
2022/11/11 03:50:09;;;;;;;6.07;2.53;;;10.00;99.90;;;;;;4215344;28;20043;-62
2022/11/11 03:52:10;;;;;;;4.07;2.40;;;9.90;99.90;;;;;;4212009;28;20044;-61
2022/11/11 03:54:10;;;;;;;4.88;2.35;;;9.90;99.90;;;;;;4209260;28;20043;-61
2022/11/11 03:56:11;;;;;;;6.20;2.70;;;9.90;99.90;;;;;;4213134;28;20032;-61
2022/11/11 03:58:12;;;;;;;6.60;2.47;;;10.00;99.90;;;;;;4214463;28;20119;-61
2022/11/11 04:00:19;;;;;;;3.95;2.28;;;10.00;99.90;;;;;;4213812;28;20037;-61
2022/11/11 04:11:43;;;;;;;3.95;2.42;;;10.10;99.90;;;;;;4200327;28;20470;-61
2022/11/11 04:16:07;;;;;;;3.33;1.95;;;10.10;99.90;;;;;;4197421;28;20029;-61
2022/11/11 04:18:07;;;;;;;2.28;1.75;;;10.10;99.90;;;;;;4200745;28;20035;-61
2022/11/11 04:22:28;;;;;;;3.20;1.95;;;10.20;99.90;;;;;;4203909;28;20104;-61
2022/11/11 04:26:48;;;;;;;5.15;2.28;;;10.20;99.90;;;;;;4198874;28;20112;-61
2022/11/11 04:31:08;;;;;;;4.70;2.38;;;10.20;99.90;;;;;;4197167;28;20043;-61
2022/11/11 04:33:09;;;;;;;4.88;2.40;;;10.20;99.90;;;;;;4199786;28;20032;-61
2022/11/11 04:35:11;;;;;;;5.15;2.60;;;10.20;99.90;;;;;;4205439;28;20487;-62
2022/11/11 04:37:13;;;;;;;3.67;2.17;;;10.20;99.90;;;;;;4204889;28;20067;-61
2022/11/11 04:41:32;;;;;;;4.75;2.40;;;10.10;99.90;;;;;;4202347;28;20295;-62
2022/11/11 04:45:26;;;;;;;4.45;2.67;;;10.10;99.90;;;;;;4200918;28;20498;-61
2022/11/11 04:45:57;;;;;;;6.45;2.80;;;10.00;99.90;;;;;;4202795;28;20077;-61
2022/11/11 04:48:06;;;;;;;8.48;3.45;;;10.00;99.90;;;;;;4200828;28;20036;-61
2022/11/11 04:50:07;;;;;;;7.38;3.33;;;9.90;99.90;;;;;;4196898;28;21386;-65
2022/11/11 04:54:28;;;;;;;5.75;3.03;;;9.80;99.90;;;;;;4201217;28;20020;-61
2022/11/11 04:56:48;;;;;;;7.35;3.28;;;9.70;99.90;;;;;;4200719;28;20035;-60
2022/11/11 04:59:14;;;;;;;5.10;3.00;;;9.70;99.90;;;;;;4195905;28;20048;-60
2022/11/11 05:01:09;;;;;;;6.72;3.38;;;9.70;99.90;;;;;;4204061;28;20055;-61
2022/11/11 05:03:15;;;;;;;7.53;3.97;;;9.60;99.90;;;;;;4198443;28;20407;-61
2022/11/11 05:05:15;;;;;;;6.03;3.30;;;9.60;99.90;;;;;;4198264;28;20048;-61
2022/11/11 05:09:36;;;;;;;6.20;4.03;;;9.50;99.90;;;;;;4199136;28;20039;-60
2022/11/11 05:11:36;;;;;;;7.72;3.65;;;9.40;99.90;;;;;;4200185;28;20040;-61
2022/11/11 05:22:53;;;;;;;6.07;3.50;;;9.40;99.90;;;;;;4202142;28;20372;-61
2022/11/11 05:27:13;;;;;;;7.65;4.03;;;9.40;99.90;;;;;;4185738;28;20391;-60
2022/11/11 05:29:14;;;;;;;7.03;3.80;;;9.40;99.90;;;;;;4180774;28;20061;-61
2022/11/11 05:31:14;;;;;;;6.53;3.55;;;9.40;99.90;;;;;;4195239;28;20039;-61
2022/11/11 05:33:15;;;;;;;6.63;3.72;;;9.40;99.90;;;;;;4198430;28;20049;-61
2022/11/11 05:35:16;;;;;;;6.93;3.95;;;9.40;99.90;;;;;;4197850;28;20032;-62
2022/11/11 05:37:18;;;;;;;7.43;4.38;;;9.50;99.90;;;;;;4200419;28;20139;-61
2022/11/11 05:39:18;;;;;;;7.90;4.38;;;9.40;99.90;;;;;;4202111;28;20762;-60
2022/11/11 05:41:19;;;;;;;7.57;4.45;;;9.40;99.90;;;;;;4200926;28;20442;-61
2022/11/11 05:43:19;;;;;;;7.97;3.92;;;9.50;99.90;;;;;;4196955;28;20032;-61
2022/11/11 05:45:20;;;;;;;7.82;4.60;;;9.50;99.90;;;;;;4204617;28;20105;-61
2022/11/11 05:47:20;;;;;;;9.43;4.40;;;9.50;99.90;;;;;;4203090;28;20101;-61
2022/11/11 05:49:22;;;;;;;6.10;3.67;;;9.50;99.90;;;;;;4202451;28;20090;-61
2022/11/11 05:51:26;;;;;;;6.13;4.00;;;9.50;99.90;;;;;;4200566;28;20032;-61
2022/11/11 05:53:27;;;;;;;6.30;4.00;;;9.50;99.90;;;;;;4198607;28;20506;-60
2022/11/11 05:55:28;;;;;;;7.03;4.38;;;9.50;99.90;;;;;;4198510;28;20033;-61
2022/11/11 05:57:29;;;;;;;6.60;4.25;;;9.60;99.90;;;;;;4203912;28;20021;-61
2022/11/11 05:59:30;;;;;;;8.65;4.07;;;9.60;99.90;;;;;;4201545;28;20082;-61
2022/11/11 06:01:30;;;;;;;8.82;4.68;;;9.60;99.90;;;;;;4196697;28;20103;-61
2022/11/11 06:03:31;;;;;;;9.38;4.82;;;9.60;99.90;;;;;;4197431;28;20111;-61
2022/11/11 06:05:31;;;;;;;11.10;5.55;;;9.60;99.90;;;;;;4199147;28;20020;-61
2022/11/11 06:07:32;;;;;;;13.48;6.45;;;9.60;99.90;;;;;;4198310;28;20403;-61
2022/11/11 06:09:32;;;;;;;13.40;6.32;;;9.60;99.90;;;;;;4197550;28;20031;-62
2022/11/11 06:11:33;;;;;;;14.35;6.18;;;9.50;99.90;;;;;;4211017;28;20126;-61
2022/11/11 06:13:34;;;;;;;12.18;5.20;;;9.50;99.90;;;;;;4211290;28;20046;-61
2022/11/11 06:15:39;;;;;;;8.60;5.25;;;9.50;99.90;;;;;;4208865;28;20024;-61
2022/11/11 06:17:40;;;;;;;8.25;5.10;;;9.50;99.90;;;;;;4201074;28;20036;-61
2022/11/11 06:19:40;;;;;;;7.90;4.70;;;9.50;99.90;;;;;;4211841;28;20020;-61
2022/11/11 06:21:56;;;;;;;7.38;4.53;;;9.50;99.90;;;;;;4203551;28;20032;-61
2022/11/11 06:23:57;;;;;;;7.93;4.05;;;9.40;99.90;;;;;;4198891;28;20040;-61
2022/11/11 06:26:13;;;;;;;9.52;4.72;;;9.40;99.90;;;;;;4194056;28;20035;-61
2022/11/11 06:28:14;;;;;;;8.65;4.50;;;9.40;99.90;;;;;;4199709;28;20028;-61
2022/11/11 06:30:15;;;;;;;5.82;3.92;;;9.40;99.90;;;;;;4201198;28;20694;-61
2022/11/11 06:32:16;;;;;;;7.25;4.03;;;9.40;99.90;;;;;;4199739;28;20656;-61
2022/11/11 06:34:16;;;;;;;9.32;4.90;;;9.40;99.90;;;;;;4197649;28;20487;-63
2022/11/11 06:36:20;;;;;;;8.18;4.88;;;9.40;99.90;;;;;;4207444;28;20356;-62
2022/11/11 06:38:21;;;;;;;10.85;4.78;;;9.40;99.90;;;;;;4214471;28;20522;-62
2022/11/11 06:40:23;;;;;;;7.75;4.45;;;9.40;99.90;;;;;;4212408;28;20036;-64
2022/11/11 06:42:23;;;;;;;7.95;4.35;;;9.50;99.90;;;;;;4211467;28;20039;-64
2022/11/11 06:44:24;;;;;;;7.88;5.22;;;9.50;99.90;;;;;;4211256;28;20499;-64
2022/11/11 06:46:26;;;;;;;9.38;4.70;;;9.50;99.90;;;;;;4213729;28;20068;-64
2022/11/11 06:48:28;;;;;;;8.20;4.55;;;9.50;99.90;;;;;;4215546;28;20039;-64
2022/11/11 06:50:28;;;;;;;9.02;4.78;;;9.50;99.90;;;;;;4213233;28;20115;-66
2022/11/11 06:52:29;;;;;;;10.80;5.20;;;9.50;99.90;;;;;;4212869;28;20078;-64
2022/11/11 06:54:29;;;;;;;7.97;4.30;;;9.50;99.90;;;;;;4206693;28;20387;-65
2022/11/11 06:56:30;;;;;;;8.15;4.85;;;9.50;99.90;;;;;;4197354;28;20082;-64
2022/11/11 06:58:31;;;;;;;9.80;4.82;;;9.60;99.90;;;;;;4198201;28;20040;-64
2022/11/11 07:00:32;;;;;;;10.48;4.72;;;9.60;99.90;;;;;;4196175;28;20027;-64
2022/11/11 07:02:32;;;;;;;10.93;4.93;;;9.60;99.90;;;;;;4194354;28;20040;-64
2022/11/11 07:04:33;;;;;;;10.18;4.50;;;9.60;99.90;;;;;;4197598;28;20045;-65
2022/11/11 07:06:33;;;;;;;12.10;5.10;;;9.60;99.90;;;;;;4195538;28;20036;-64
2022/11/11 07:08:34;;;;;;;8.40;4.35;;;9.60;99.90;;;;;;4195159;28;20116;-63
2022/11/11 07:10:37;;;;;;;7.88;4.47;;;9.60;99.90;;;;;;4195661;28;20048;-64
2022/11/11 07:12:40;;;;;;;9.65;4.25;;;9.60;99.90;;;;;;4191460;28;20051;-66
2022/11/11 07:14:41;;;;;;;8.40;4.50;;;9.60;99.90;;;;;;4197079;28;20186;-65
2022/11/11 07:16:42;;;;;;;9.13;4.75;;;9.70;99.90;;;;;;4194466;28;20491;-64
2022/11/11 07:18:42;;;;;;;6.60;4.20;;;9.70;99.90;;;;;;4195007;28;20479;-64
2022/11/11 07:20:43;;;;;;;7.43;3.85;;;9.70;99.90;;;;;;4194879;28;20495;-65
2022/11/11 07:22:43;;;;;;;11.55;4.55;;;9.70;99.90;;;;;;4198327;28;20078;-64
2022/11/11 07:24:44;;;;;;;8.25;4.47;;;9.70;99.90;;;;;;4197099;28;20036;-64
2022/11/11 07:26:44;;;;;;;8.98;4.22;;;9.80;99.90;;;;;;4202348;28;20504;-64
2022/11/11 07:28:45;;;;;;;9.77;4.70;;;9.70;99.90;;;;;;4195626;28;20376;-65
2022/11/11 07:30:46;;;;;;;8.13;4.18;;;9.60;99.90;;;;;;4195477;28;20491;-65
2022/11/11 07:32:51;;;;;;;10.18;4.57;;;9.70;99.90;;;;;;4194862;28;20032;-65
2022/11/11 07:34:51;;;;;;;8.27;4.10;;;9.60;99.90;;;;;;4195110;28;20094;-65
2022/11/11 07:36:52;;;;;;;6.78;4.30;;;9.60;99.90;;;;;;4196001;28;20045;-65
2022/11/11 07:38:53;;;;;;;7.22;4.40;;;9.60;99.90;;;;;;4195622;28;20055;-65
2022/11/11 07:40:53;;;;;;;7.68;4.05;;;9.60;99.90;;;;;;4210894;28;20163;-65
2022/11/11 07:42:54;;;;;;;8.23;4.10;;;9.50;99.90;;;;;;4195651;28;20036;-65
2022/11/11 07:44:55;;;;;;;7.88;4.30;;;9.60;99.90;;;;;;4192367;28;20040;-65
2022/11/11 07:46:55;;;;;;;7.10;4.07;;;9.60;99.90;;;;;;4197610;28;20039;-65
2022/11/11 07:48:56;;;;;;;8.00;4.82;;;9.60;99.90;;;;;;4199611;28;20114;-65
2022/11/11 07:50:57;;;;;;;7.47;4.75;;;9.60;99.90;;;;;;4195575;28;20119;-65
2022/11/11 07:52:57;;;;;;;7.80;4.50;;;9.60;99.90;;;;;;4196462;28;21002;-65
2022/11/11 07:54:58;;;;;;;10.68;4.95;;;9.60;99.90;;;;;;4195881;28;20036;-65
2022/11/11 07:56:58;;;;;;;7.28;4.25;;;9.60;99.90;;;;;;4200016;28;20036;-65
2022/11/11 07:58:59;;;;;;;6.35;4.35;;;9.60;99.90;;;;;;4197568;28;20056;-65
2022/11/11 08:01:00;;;;;;;8.30;5.00;;;9.60;99.90;;;;;;4199135;28;20036;-65
2022/11/11 08:03:00;;;;;;;6.88;4.63;;;9.60;99.90;;;;;;4199960;28;20580;-65
2022/11/11 08:05:01;;;;;;;9.55;4.55;;;9.60;99.90;;;;;;4197945;28;20048;-65
2022/11/11 08:07:01;;;;;;;8.93;4.55;;;9.60;99.90;;;;;;4196429;28;20570;-65
2022/11/11 08:09:02;;;;;;;8.32;4.43;;;9.70;99.90;;;;;;4196323;28;20118;-65
2022/11/11 08:11:03;;;;;;;9.98;4.88;;;9.60;99.90;;;;;;4198576;28;20394;-65
2022/11/11 08:15:23;;;;;;;7.18;4.18;;;9.70;99.90;;;;;;4196100;28;20120;-65
2022/11/11 08:17:23;;;;;;;7.65;4.32;;;9.80;99.90;;;;;;4197605;28;20478;-66
2022/11/11 08:19:24;;;;;;;11.88;4.65;;;9.80;99.90;;;;;;4199586;28;20036;-65
2022/11/11 08:21:25;;;;;;;6.70;4.15;;;9.90;99.90;;;;;;4196741;28;20044;-65
2022/11/11 08:23:31;;;;;;;7.55;4.72;;;9.90;99.90;;;;;;4198153;28;20098;-65
2022/11/11 08:25:32;;;;;;;8.05;4.25;;;9.90;99.90;;;;;;4198499;28;20120;-65
2022/11/11 08:27:33;;;;;;;7.70;4.43;;;10.00;99.90;;;;;;4198175;28;20056;-65
2022/11/11 08:29:34;;;;;;;6.63;3.70;;;10.00;99.90;;;;;;4198232;28;20047;-65
2022/11/11 08:31:34;;;;;;;6.60;3.90;;;10.10;99.90;;;;;;4197347;28;20483;-65
2022/11/11 08:33:35;;;;;;;6.97;3.83;;;10.20;99.90;;;;;;4198504;28;20073;-66
2022/11/11 08:35:36;;;;;;;6.38;3.47;;;10.30;99.90;;;;;;4199389;28;20024;-65
2022/11/11 08:37:36;;;;;;;6.70;3.78;;;10.40;99.90;;;;;;4194484;28;20039;-65
2022/11/11 08:39:37;;;;;;;5.13;3.05;;;10.50;99.90;;;;;;4198168;28;20035;-65
2022/11/11 08:41:38;;;;;;;8.88;3.75;;;10.60;99.90;;;;;;4197574;28;20040;-65
2022/11/11 08:43:38;;;;;;;9.75;3.83;;;10.70;99.90;;;;;;4197720;28;20040;-67
2022/11/11 08:45:39;;;;;;;5.95;3.40;;;10.80;99.90;;;;;;4198125;28;20029;-66
2022/11/11 08:47:42;;;;;;;5.82;3.20;;;10.80;99.90;;;;;;4206634;28;20494;-65
2022/11/11 08:49:43;;;;;;;6.60;3.72;;;10.90;99.90;;;;;;4202181;28;20073;-66
2022/11/11 08:51:43;;;;;;;7.07;3.67;;;11.00;99.90;;;;;;4198348;28;20039;-65
2022/11/11 08:53:44;;;;;;;6.93;3.33;;;11.10;99.90;;;;;;4196036;28;20420;-66
2022/11/11 08:55:45;;;;;;;6.63;3.30;;;11.10;99.90;;;;;;4195053;28;20032;-65
2022/11/11 08:57:45;;;;;;;7.10;3.75;;;11.20;99.90;;;;;;4196075;28;20040;-66
2022/11/11 08:59:46;;;;;;;6.05;3.70;;;11.30;99.90;;;;;;4197186;28;20044;-66
2022/11/11 09:01:47;;;;;;;7.05;3.55;;;11.40;99.90;;;;;;4195554;28;20494;-66
2022/11/11 09:03:47;;;;;;;5.85;3.55;;;11.40;99.90;;;;;;4198408;28;20420;-65
2022/11/11 09:05:48;;;;;;;5.93;3.15;;;11.50;99.90;;;;;;4200818;28;20476;-65
2022/11/11 09:07:49;;;;;;;5.10;3.45;;;11.60;99.90;;;;;;4196877;28;20024;-66
2022/11/11 09:09:49;;;;;;;6.15;3.08;;;11.60;99.90;;;;;;4198715;28;20502;-66
2022/11/11 09:11:50;;;;;;;5.85;3.08;;;11.60;99.90;;;;;;4198337;28;20488;-66
2022/11/11 09:13:51;;;;;;;5.10;2.97;;;11.70;99.90;;;;;;4201333;28;20466;-65
2022/11/11 09:15:53;;;;;;;8.13;3.20;;;11.70;99.90;;;;;;4210137;28;20050;-65
2022/11/11 09:17:54;;;;;;;5.03;2.90;;;11.80;99.90;;;;;;4211075;28;20025;-65
2022/11/11 09:19:54;;;;;;;6.07;3.47;;;11.80;99.90;;;;;;4216317;28;20447;-65
2022/11/11 09:21:55;;;;;;;4.20;2.75;;;11.80;99.90;;;;;;4216033;28;20402;-66
2022/11/11 09:23:55;;;;;;;8.23;3.40;;;11.90;99.90;;;;;;4214839;28;20479;-65
2022/11/11 09:25:59;;;;;;;4.85;3.15;;;12.00;99.90;;;;;;4213558;28;20032;-66
2022/11/11 09:28:00;;;;;;;5.20;3.03;;;12.00;99.90;;;;;;4208737;28;20104;-66
2022/11/11 09:30:01;;;;;;;5.63;3.03;;;12.10;99.90;;;;;;4201914;28;20447;-65
2022/11/11 09:32:01;;;;;;;5.47;2.92;;;12.20;99.90;;;;;;4199254;28;20039;-65
2022/11/11 09:34:02;;;;;;;7.28;3.50;;;12.20;99.90;;;;;;4199386;28;20040;-65
2022/11/11 09:36:03;;;;;;;6.40;3.38;;;12.20;99.90;;;;;;4199843;28;20028;-65
2022/11/11 09:38:03;;;;;;;6.95;2.97;;;12.30;99.90;;;;;;4198331;28;20036;-65
2022/11/11 09:40:05;;;;;;;6.07;3.38;;;12.30;99.90;;;;;;4200141;28;20466;-66
2022/11/11 09:42:42;;;;;;;5.72;3.15;;;12.30;99.90;;;;;;4200367;28;20119;-66
2022/11/11 09:44:43;;;;;;;5.43;2.78;;;12.30;99.90;;;;;;4209876;28;20479;-65
2022/11/11 09:46:55;;;;;;;5.50;2.85;;;12.40;99.90;;;;;;4216703;28;20036;-66
2022/11/11 09:49:42;;;;;;;5.70;3.10;;;12.50;99.90;;;;;;4198482;28;20386;-66
2022/11/11 09:51:53;;;;;;;4.97;2.78;;;12.50;99.90;;;;;;4206169;28;20028;-65
2022/11/11 09:54:02;;;;;;;7.40;3.42;;;12.50;99.90;;;;;;4208957;28;20043;-65
2022/11/11 09:56:10;;;;;;;6.50;3.25;;;12.60;99.90;;;;;;4198697;28;20524;-65
2022/11/11 09:58:19;;;;;;;7.15;3.10;;;12.60;99.90;;;;;;4197842;28;20127;-66
2022/11/11 10:00:23;;;;;;;5.72;2.88;;;12.60;99.90;;;;;;4195356;28;20044;-66
2022/11/11 10:02:46;;;;;;;3.78;2.60;;;12.70;99.90;;;;;;4201174;28;20034;-66
2022/11/11 10:04:47;;;;;;;;;;;12.70;99.90;;;;;;4179063;28;20035;-66
2022/11/11 10:06:51;;;;;;;3.85;2.45;;;12.80;99.90;;;;;;4209947;28;20355;-66
2022/11/11 10:09:01;;;;;;;5.07;2.63;;;12.80;99.90;;;;;;4215621;28;20033;-67
2022/11/11 10:11:10;;;;;;;5.30;2.50;;;12.90;99.90;;;;;;4196173;28;20135;-65
2022/11/11 10:13:35;;;;;;;3.97;2.30;;;13.00;99.90;;;;;;4206646;28;20067;-65
2022/11/11 10:16:03;;;;;;;5.88;2.88;;;13.00;99.90;;;;;;4201668;28;20028;-65
2022/11/11 10:18:37;;;;;;;8.27;3.25;;;13.00;99.90;;;;;;4194384;28;20028;-66
2022/11/11 10:20:43;;;;;;;5.75;2.80;;;13.10;99.90;;;;;;4193907;28;20036;-66
2022/11/11 10:22:48;;;;;;;5.53;2.40;;;13.00;99.90;;;;;;4195807;28;20046;-67
2022/11/11 10:25:07;;;;;;;5.63;2.80;;;13.10;99.90;;;;;;4200723;28;20029;-66
2022/11/11 10:27:17;;;;;;;5.43;2.60;;;13.10;99.90;;;;;;4198289;28;20036;-66
2022/11/11 10:29:20;;;;;;;5.28;2.88;;;13.20;99.90;;;;;;4195077;28;20036;-66
2022/11/11 10:31:23;;;;;;;6.78;2.90;;;13.20;99.90;;;;;;4194373;28;20032;-67
2022/11/11 10:33:26;;;;;;;;;;;13.20;99.90;;;;;;4198099;28;20394;-67
2022/11/11 10:35:30;;;;;;;7.03;3.10;;;13.20;99.90;;;;;;4196758;28;20426;-67
2022/11/11 10:38:10;;;;;;;5.85;3.05;;;13.20;99.90;;;;;;4198246;28;20055;-66
2022/11/11 10:40:34;;;;;;;8.40;3.10;;;13.30;99.90;;;;;;4196833;28;20028;-66
2022/11/11 10:42:34;;;;;;;5.32;2.85;;;13.30;99.90;;;;;;4196571;28;20195;-66
2022/11/11 10:44:35;;;;;;;5.05;3.08;;;13.30;99.90;;;;;;4198122;28;20048;-67
2022/11/11 10:46:41;;;;;;;5.00;2.65;;;13.40;99.90;;;;;;4194953;28;20081;-66
2022/11/11 10:49:06;;;;;;;3.90;2.83;;;13.50;99.90;;;;;;4194340;28;20517;-67
2022/11/11 10:51:07;;;;;;;4.63;2.63;;;13.40;99.90;;;;;;4196578;28;20047;-66
2022/11/11 10:53:30;;;;;;;6.97;2.85;;;13.40;99.90;;;;;;4199454;28;20040;-66
2022/11/11 10:55:30;;;;;;;;;;;13.50;99.90;;;;;;4194740;28;20991;-66
2022/11/11 10:57:34;;;;;;;4.68;2.40;;;13.50;99.90;;;;;;4198469;28;19916;-66
2022/11/11 10:59:38;;;;;;;5.25;2.97;;;13.60;99.90;;;;;;4196331;28;20040;-66
2022/11/11 11:01:44;;;;;;;5.03;3.00;;;13.60;99.90;;;;;;4195613;28;20569;-67
2022/11/11 11:03:52;;;;;;;5.32;2.45;;;13.60;99.90;;;;;;4196873;28;20027;-64
2022/11/11 11:06:15;;;;;;;5.03;2.53;;;13.70;99.90;;;;;;4196532;28;20036;-65
2022/11/11 11:08:22;;;;;;;5.00;2.92;;;13.70;99.90;;;;;;4196703;28;20048;-64
2022/11/11 11:10:38;;;;;;;4.05;2.33;;;13.80;99.90;;;;;;4192675;28;20491;-64
2022/11/11 11:13:12;;;;;;;6.13;2.33;;;13.80;99.90;;;;;;4197124;28;20665;-64
2022/11/11 11:15:17;;;;;;;5.20;2.30;;;13.90;99.90;;;;;;4197115;28;20513;-64
2022/11/11 11:17:29;;;;;;;11.70;2.60;;;13.90;99.90;;;;;;4196135;28;20036;-63
2022/11/11 11:19:30;;;;;;;7.05;2.58;;;13.90;99.90;;;;;;4196956;28;20039;-64
2022/11/11 11:21:58;;;;;;;5.40;2.25;;;14.00;99.90;;;;;;4197009;28;20392;-62
2022/11/11 11:23:59;;;;;;;3.67;2.33;;;14.10;99.90;;;;;;4194540;28;20032;-64
2022/11/11 11:26:01;;;;;;;4.35;1.88;;;14.10;99.90;;;;;;4199079;28;20032;-64
2022/11/11 11:28:09;;;;;;;3.80;2.38;;;14.10;99.90;;;;;;4196908;28;20112;-66
2022/11/11 11:30:17;;;;;;;5.03;1.85;;;14.20;99.90;;;;;;4193732;28;20101;-68
2022/11/11 11:32:27;;;;;;;5.43;2.22;;;14.20;99.90;;;;;;4196326;28;20113;-67
2022/11/11 11:34:52;;;;;;;4.30;2.47;;;14.30;99.90;;;;;;4196533;28;20063;-66
2022/11/11 11:37:00;;;;;;;4.95;2.38;;;14.30;99.90;;;;;;4189052;28;20501;-66
2022/11/11 11:39:00;;;;;;;4.88;2.38;;;14.30;99.90;;;;;;4196901;28;20534;-66
2022/11/11 11:41:01;;;;;;;5.43;2.47;;;14.40;99.90;;;;;;4197651;28;20051;-67
2022/11/11 11:43:22;;;;;;;6.22;2.50;;;14.40;99.90;;;;;;4195626;28;20040;-67
2022/11/11 11:45:25;;;;;;;6.97;2.60;;;14.40;99.90;;;;;;4195025;28;20147;-67
2022/11/11 11:47:50;;;;;;;5.10;2.55;;;14.40;99.90;;;;;;4196180;28;20040;-67
2022/11/11 11:50:15;;;;;;;5.75;2.97;;;14.40;99.90;;;;;;4195451;28;20565;-64
2022/11/11 11:52:30;;;;;;;6.40;3.03;;;14.40;99.90;;;;;;4194462;28;20040;-63
2022/11/11 11:54:50;;;;;;;6.65;3.00;;;14.40;99.90;;;;;;4195445;28;20081;-64